createdAt,value
2018-12-31T00:02:31.821Z,1.13
2018-12-31T00:05:00.290Z,1.40
2018-12-31T00:08:09.076Z,1.53
2018-12-31T00:10:37.571Z,2.20
2018-12-31T00:13:57.600Z,1.40
2018-12-31T00:16:26.594Z,1.30
2018-12-31T00:18:55.344Z,1.43
2018-12-31T00:21:31.083Z,1.67
2018-12-31T00:23:59.675Z,1.37
2018-12-31T00:27:02.667Z,1.23
2018-12-31T00:29:31.216Z,2.00
2018-12-31T00:32:00.898Z,1.30
2018-12-31T00:34:40.087Z,1.30
2018-12-31T00:37:08.586Z,1.73
2018-12-31T00:39:37.324Z,1.87
2018-12-31T00:42:05.967Z,1.13
2018-12-31T00:44:36.432Z,1.70
2018-12-31T00:47:05.395Z,1.20
2018-12-31T00:49:33.832Z,0.80
2018-12-31T00:52:02.370Z,1.27
2018-12-31T00:54:31.152Z,1.10
2018-12-31T00:56:59.636Z,1.50
2018-12-31T00:59:28.265Z,1.33
2018-12-31T01:01:56.788Z,1.93
2018-12-31T01:04:25.578Z,1.00
2018-12-31T01:06:54.073Z,1.37
2018-12-31T01:09:22.599Z,1.20
2018-12-31T01:11:51.328Z,1.10
2018-12-31T01:14:20.362Z,1.47
2018-12-31T01:16:48.855Z,1.00
2018-12-31T01:19:19.343Z,1.00
2018-12-31T01:21:47.835Z,2.00
2018-12-31T01:24:16.316Z,0.93
2018-12-31T01:26:44.800Z,1.07
2018-12-31T01:29:13.348Z,0.80
2018-12-31T01:31:41.850Z,1.20
2018-12-31T01:34:10.841Z,1.37
2018-12-31T01:36:39.372Z,1.20
2018-12-31T01:39:07.863Z,1.10
2018-12-31T01:41:36.740Z,0.90
2018-12-31T01:44:05.276Z,1.50
2018-12-31T01:46:33.736Z,0.90
2018-12-31T01:49:02.252Z,0.80
2018-12-31T01:51:30.907Z,0.93
2018-12-31T01:54:02.107Z,1.30
2018-12-31T01:56:31.402Z,1.10
2018-12-31T01:59:01.738Z,1.20
2018-12-31T02:01:30.496Z,1.53
2018-12-31T02:03:59.287Z,1.10
2018-12-31T02:06:29.799Z,0.90
2018-12-31T02:08:58.315Z,0.90
2018-12-31T02:11:26.764Z,1.20
2018-12-31T02:13:55.506Z,1.13
2018-12-31T02:16:23.972Z,0.93
2018-12-31T02:18:52.460Z,1.17
2018-12-31T02:21:21.063Z,0.80
2018-12-31T02:23:49.530Z,1.10
2018-12-31T02:26:18.420Z,0.80
2018-12-31T02:28:46.919Z,1.00
2018-12-31T02:31:15.526Z,3.27
2018-12-31T02:33:43.969Z,1.80
2018-12-31T02:36:14.694Z,1.13
2018-12-31T02:38:44.761Z,1.57
2018-12-31T02:41:15.031Z,1.27
2018-12-31T02:43:43.488Z,1.20
2018-12-31T02:46:12.647Z,0.93
2018-12-31T02:48:41.128Z,1.53
2018-12-31T02:51:09.625Z,0.83
2018-12-31T02:53:43.989Z,0.80
2018-12-31T02:56:08.393Z,2.20
2018-12-31T02:58:36.891Z,0.90
2018-12-31T03:01:05.818Z,1.03
2018-12-31T03:03:34.563Z,0.83
2018-12-31T03:06:03.643Z,1.03
2018-12-31T03:08:32.362Z,1.10
2018-12-31T03:11:03.969Z,0.80
2018-12-31T03:13:32.525Z,1.07
2018-12-31T03:16:03.707Z,0.70
2018-12-31T03:18:32.276Z,0.70
2018-12-31T03:21:00.827Z,3.20
2018-12-31T03:23:29.296Z,0.80
2018-12-31T03:25:58.012Z,0.90
2018-12-31T03:28:26.493Z,1.43
2018-12-31T03:30:54.941Z,0.80
2018-12-31T03:33:24.708Z,0.70
2018-12-31T03:35:53.176Z,0.90
2018-12-31T03:38:21.761Z,1.30
2018-12-31T03:40:51.521Z,0.70
2018-12-31T03:43:19.988Z,0.80
2018-12-31T03:45:48.491Z,0.70
2018-12-31T03:48:17.103Z,0.97
2018-12-31T03:50:45.586Z,0.70
2018-12-31T03:53:14.551Z,0.60
2018-12-31T03:55:43.554Z,1.53
2018-12-31T03:58:12.001Z,0.80
2018-12-31T04:00:40.654Z,0.60
2018-12-31T04:03:09.171Z,0.70
2018-12-31T04:05:37.685Z,0.77
2018-12-31T04:08:06.537Z,0.70
2018-12-31T04:10:35.010Z,0.70
2018-12-31T04:13:03.538Z,0.80
2018-12-31T04:15:32.872Z,1.03
2018-12-31T04:18:01.404Z,0.80
2018-12-31T04:20:29.947Z,1.27
2018-12-31T04:22:59.845Z,0.80
2018-12-31T04:25:28.437Z,1.07
2018-12-31T04:27:58.612Z,0.80
2018-12-31T04:30:27.033Z,0.90
2018-12-31T04:32:55.641Z,1.00
2018-12-31T04:35:24.132Z,0.80
2018-12-31T04:37:52.627Z,0.97
2018-12-31T04:40:21.207Z,0.90
2018-12-31T04:42:49.662Z,0.80
2018-12-31T04:45:18.373Z,1.10
2018-12-31T04:47:47.420Z,1.20
2018-12-31T04:50:15.875Z,1.27
2018-12-31T04:52:44.641Z,1.40
2018-12-31T04:55:13.136Z,1.20
2018-12-31T04:57:41.631Z,1.30
2018-12-31T05:00:10.166Z,1.33
2018-12-31T05:02:38.664Z,1.50
2018-12-31T05:05:07.706Z,1.50
2018-12-31T05:07:36.284Z,1.50
2018-12-31T05:10:05.289Z,1.40
2018-12-31T05:12:34.672Z,1.40
2018-12-31T05:15:03.215Z,1.37
2018-12-31T05:17:36.501Z,1.13
2018-12-31T05:20:05.484Z,1.10
2018-12-31T05:22:33.923Z,0.97
2018-12-31T05:25:02.517Z,0.90
2018-12-31T05:27:31.309Z,1.17
2018-12-31T05:30:00.320Z,1.17
2018-12-31T05:32:29.063Z,0.80
2018-12-31T05:34:57.504Z,1.10
2018-12-31T05:37:25.979Z,1.20
2018-12-31T05:39:54.524Z,1.33
2018-12-31T05:42:23.007Z,1.30
2018-12-31T05:44:51.593Z,2.13
2018-12-31T05:47:20.135Z,2.00
2018-12-31T05:49:48.590Z,1.83
2018-12-31T05:52:17.300Z,1.50
2018-12-31T05:54:45.756Z,1.40
2018-12-31T05:57:14.406Z,1.30
2018-12-31T05:59:42.836Z,1.73
2018-12-31T06:02:11.303Z,1.67
2018-12-31T06:04:45.351Z,1.57
2018-12-31T06:07:13.804Z,1.57
2018-12-31T06:09:42.295Z,1.70
2018-12-31T06:12:11.304Z,1.77
2018-12-31T06:14:40.032Z,1.50
2018-12-31T06:17:12.249Z,2.17
2018-12-31T06:19:40.768Z,1.50
2018-12-31T06:22:09.224Z,1.40
2018-12-31T06:24:37.676Z,2.13
2018-12-31T06:27:06.247Z,1.30
2018-12-31T06:29:35.053Z,1.50
2018-12-31T06:32:03.619Z,2.70
2018-12-31T06:34:32.110Z,1.93
2018-12-31T06:37:00.629Z,1.73
2018-12-31T06:39:29.177Z,4.63
2018-12-31T06:41:57.643Z,2.27
2018-12-31T06:44:26.311Z,1.30
2018-12-31T06:46:55.911Z,1.70
2018-12-31T06:49:24.494Z,1.80
2018-12-31T06:51:53.227Z,2.37
2018-12-31T06:54:21.680Z,1.97
2018-12-31T06:56:50.194Z,2.17
2018-12-31T06:59:18.947Z,2.53
2018-12-31T07:01:47.654Z,3.47
2018-12-31T07:04:16.113Z,3.90
2018-12-31T07:06:44.624Z,5.50
2018-12-31T07:09:13.075Z,2.90
2018-12-31T07:11:41.527Z,2.93
2018-12-31T07:14:10.044Z,1.83
2018-12-31T07:16:38.500Z,2.63
2018-12-31T07:19:07.469Z,3.03
2018-12-31T07:21:35.943Z,2.90
2018-12-31T07:24:04.431Z,4.93
2018-12-31T07:26:34.606Z,4.07
2018-12-31T07:29:07.506Z,4.90
2018-12-31T07:31:36.026Z,3.27
2018-12-31T07:34:07.186Z,5.10
2018-12-31T07:36:36.649Z,3.83
2018-12-31T07:39:06.053Z,3.60
2018-12-31T07:41:35.938Z,7.60
2018-12-31T07:44:04.612Z,5.20
2018-12-31T07:46:33.543Z,3.57
2018-12-31T07:49:03.032Z,3.80
2018-12-31T07:51:32.755Z,5.17
2018-12-31T07:54:01.609Z,6.33
2018-12-31T07:56:30.484Z,3.93
2018-12-31T07:58:59.997Z,4.03
2018-12-31T08:01:30.304Z,7.10
2018-12-31T08:03:58.758Z,6.13
2018-12-31T08:06:27.257Z,6.10
2018-12-31T08:08:56.102Z,6.73
2018-12-31T08:11:26.058Z,7.30
2018-12-31T08:13:54.927Z,6.30
2018-12-31T08:16:28.042Z,7.30
2018-12-31T08:18:56.480Z,7.27
2018-12-31T08:21:24.886Z,8.43
2018-12-31T08:23:53.655Z,7.93
2018-12-31T08:26:22.123Z,7.40
2018-12-31T08:28:52.916Z,8.83
2018-12-31T08:31:28.080Z,7.80
2018-12-31T08:33:56.621Z,7.17
2018-12-31T08:36:30.044Z,10.30
2018-12-31T08:38:58.497Z,10.70
2018-12-31T08:41:29.546Z,7.17
2018-12-31T08:43:58.149Z,10.23
2018-12-31T08:46:29.422Z,8.93
2018-12-31T08:49:00.579Z,6.53
2018-12-31T08:51:29.495Z,6.27
2018-12-31T08:54:01.016Z,8.33
2018-12-31T08:56:34.792Z,10.07
2018-12-31T08:59:05.871Z,10.13
2018-12-31T09:01:35.597Z,9.67
2018-12-31T09:04:04.169Z,7.23
2018-12-31T09:06:32.865Z,7.57
2018-12-31T09:09:03.251Z,10.87
2018-12-31T09:11:33.795Z,7.17
2018-12-31T09:14:02.536Z,9.07
2018-12-31T09:16:32.535Z,11.07
2018-12-31T09:19:02.145Z,12.77
2018-12-31T09:21:34.180Z,13.57
2018-12-31T09:24:03.187Z,12.93
2018-12-31T09:26:33.935Z,14.77
2018-12-31T09:29:02.411Z,15.90
2018-12-31T09:31:33.689Z,16.47
2018-12-31T09:34:02.622Z,17.67
2018-12-31T09:36:34.044Z,18.07
2018-12-31T09:39:02.552Z,20.53
2018-12-31T09:41:31.672Z,22.63
2018-12-31T09:44:00.307Z,21.40
2018-12-31T09:46:28.867Z,21.57
2018-12-31T09:48:57.656Z,23.60
2018-12-31T09:51:26.130Z,23.27
2018-12-31T09:53:54.668Z,23.63
2018-12-31T09:56:23.139Z,23.47
2018-12-31T09:58:51.757Z,25.40
2018-12-31T10:01:22.012Z,23.43
2018-12-31T10:03:51.167Z,25.50
2018-12-31T10:06:19.643Z,25.47
2018-12-31T10:08:50.735Z,21.37
2018-12-31T10:11:19.264Z,20.60
2018-12-31T10:13:47.977Z,21.80
2018-12-31T10:16:16.479Z,18.50
2018-12-31T10:18:45.000Z,24.33
2018-12-31T10:21:16.205Z,18.33
2018-12-31T10:23:45.055Z,17.83
2018-12-31T10:26:13.513Z,19.30
2018-12-31T10:28:42.575Z,17.77
2018-12-31T10:31:11.060Z,22.57
2018-12-31T10:33:39.886Z,18.00
2018-12-31T10:36:08.419Z,18.90
2018-12-31T10:38:37.126Z,21.83
2018-12-31T10:41:05.632Z,19.13
2018-12-31T10:43:34.361Z,17.33
2018-12-31T10:46:02.875Z,19.73
2018-12-31T10:48:31.357Z,19.97
2018-12-31T10:50:59.982Z,21.77
2018-12-31T10:53:31.604Z,22.63
2018-12-31T10:56:01.270Z,24.63
2018-12-31T10:58:29.747Z,17.17
2018-12-31T11:01:00.698Z,16.97
2018-12-31T11:03:29.525Z,20.80
2018-12-31T11:05:59.909Z,19.07
2018-12-31T11:08:28.297Z,21.47
2018-12-31T11:10:57.623Z,17.60
2018-12-31T11:13:26.457Z,18.33
2018-12-31T11:15:55.984Z,19.70
2018-12-31T11:18:27.882Z,20.20
2018-12-31T11:20:56.516Z,19.23
2018-12-31T11:23:25.062Z,21.47
2018-12-31T11:25:53.559Z,19.17
2018-12-31T11:28:22.181Z,19.63
2018-12-31T11:30:51.736Z,18.87
2018-12-31T11:33:20.405Z,20.33
2018-12-31T11:35:50.881Z,20.23
2018-12-31T11:38:21.950Z,21.57
2018-12-31T11:40:50.556Z,24.30
2018-12-31T11:43:19.631Z,18.03
2018-12-31T11:45:48.304Z,21.47
2018-12-31T11:48:19.774Z,24.07
2018-12-31T11:50:49.812Z,19.80
2018-12-31T11:53:18.925Z,22.30
2018-12-31T11:55:49.394Z,20.87
2018-12-31T11:58:18.367Z,25.27
2018-12-31T12:00:47.085Z,21.67
2018-12-31T12:03:15.573Z,21.60
2018-12-31T12:05:44.087Z,23.80
2018-12-31T12:08:18.750Z,25.20
2018-12-31T12:10:47.745Z,23.90
2018-12-31T12:13:16.985Z,25.80
2018-12-31T12:15:48.464Z,26.17
2018-12-31T12:18:16.917Z,22.53
2018-12-31T12:20:45.609Z,24.20
2018-12-31T12:23:14.209Z,23.60
2018-12-31T12:25:46.735Z,23.87
2018-12-31T12:28:20.523Z,25.47
2018-12-31T12:30:49.321Z,24.27
2018-12-31T12:33:17.837Z,22.20
2018-12-31T12:35:46.772Z,24.27
2018-12-31T12:38:16.699Z,27.27
2018-12-31T12:40:45.224Z,26.30
2018-12-31T12:43:17.061Z,21.70
2018-12-31T12:45:46.857Z,20.53
2018-12-31T12:48:15.303Z,23.70
2018-12-31T12:50:45.104Z,22.67
2018-12-31T12:53:15.159Z,31.43
2018-12-31T12:55:46.830Z,23.70
2018-12-31T12:58:15.712Z,25.80
2018-12-31T13:00:46.930Z,25.57
2018-12-31T13:03:15.535Z,25.80
2018-12-31T13:05:45.717Z,25.90
2018-12-31T13:08:16.713Z,28.40
2018-12-31T13:10:45.196Z,23.20
2018-12-31T13:13:16.470Z,25.57
2018-12-31T13:15:45.082Z,26.13
2018-12-31T13:18:19.251Z,28.97
2018-12-31T13:20:51.780Z,26.03
2018-12-31T13:23:28.121Z,24.07
2018-12-31T13:25:54.594Z,25.33
2018-12-31T13:28:23.851Z,25.80
2018-12-31T13:30:55.516Z,31.43
2018-12-31T13:33:24.281Z,32.83
2018-12-31T13:35:52.961Z,23.60
2018-12-31T13:38:28.873Z,29.43
2018-12-31T13:40:53.365Z,30.43
2018-12-31T13:43:21.835Z,26.33
2018-12-31T13:45:53.482Z,26.87
2018-12-31T13:48:21.925Z,31.73
2018-12-31T13:50:54.714Z,27.17
2018-12-31T13:53:23.641Z,31.87
2018-12-31T13:55:57.873Z,32.13
2018-12-31T13:58:28.567Z,33.53
2018-12-31T14:00:57.675Z,33.30
2018-12-31T14:03:26.554Z,28.70
2018-12-31T14:05:55.132Z,36.10
2018-12-31T14:08:26.395Z,38.70
2018-12-31T14:10:54.934Z,40.43
2018-12-31T14:13:23.447Z,34.60
2018-12-31T14:15:53.544Z,32.63
2018-12-31T14:18:22.099Z,36.27
2018-12-31T14:20:52.002Z,32.43
2018-12-31T14:23:20.468Z,32.17
2018-12-31T14:25:52.959Z,31.93
2018-12-31T14:28:19.939Z,29.47
2018-12-31T14:30:48.624Z,32.87
2018-12-31T14:33:17.387Z,34.50
2018-12-31T14:35:46.223Z,34.50
2018-12-31T14:38:25.092Z,29.83
2018-12-31T14:40:45.161Z,36.33
2018-12-31T14:43:14.131Z,33.33
2018-12-31T14:45:43.058Z,31.83
2018-12-31T14:48:14.048Z,31.57
2018-12-31T14:50:42.625Z,31.37
2018-12-31T14:53:13.783Z,33.47
2018-12-31T14:55:42.460Z,31.97
2018-12-31T14:58:12.933Z,29.60
2018-12-31T15:00:41.630Z,28.97
2018-12-31T15:03:11.508Z,32.80
2018-12-31T15:05:40.692Z,32.83
2018-12-31T15:08:10.642Z,28.87
2018-12-31T15:10:39.881Z,33.80
2018-12-31T15:13:10.216Z,31.90
2018-12-31T15:15:38.998Z,32.70
2018-12-31T15:18:08.835Z,39.23
2018-12-31T15:20:37.551Z,35.77
2018-12-31T15:23:07.512Z,31.57
2018-12-31T15:25:35.997Z,36.30
2018-12-31T15:28:04.934Z,30.03
2018-12-31T15:30:33.512Z,35.20
2018-12-31T15:33:07.898Z,32.90
2018-12-31T15:35:36.300Z,31.27
2018-12-31T15:38:07.669Z,29.20
2018-12-31T15:40:37.839Z,32.20
2018-12-31T15:43:06.378Z,35.30
2018-12-31T15:45:35.177Z,37.47
2018-12-31T15:48:03.636Z,35.73
2018-12-31T15:50:32.365Z,33.10
2018-12-31T15:53:01.304Z,31.20
2018-12-31T15:55:32.859Z,34.70
2018-12-31T15:58:04.167Z,30.03
2018-12-31T16:00:33.871Z,28.43
2018-12-31T16:03:02.441Z,32.17
2018-12-31T16:05:33.992Z,33.93
2018-12-31T16:08:06.328Z,30.47
2018-12-31T16:10:36.727Z,31.20
2018-12-31T16:13:05.256Z,29.00
2018-12-31T16:15:33.688Z,27.57
2018-12-31T16:18:02.515Z,25.73
2018-12-31T16:20:31.481Z,29.10
2018-12-31T16:23:08.830Z,31.13
2018-12-31T16:25:37.293Z,29.73
2018-12-31T16:28:07.381Z,33.00
2018-12-31T16:30:36.136Z,25.23
2018-12-31T16:33:06.421Z,27.67
2018-12-31T16:35:35.044Z,28.73
2018-12-31T16:38:03.620Z,28.40
2018-12-31T16:40:32.281Z,31.40
2018-12-31T16:43:00.855Z,33.67
2018-12-31T16:45:29.597Z,28.13
2018-12-31T16:47:58.291Z,33.10
2018-12-31T16:50:27.678Z,29.43
2018-12-31T16:52:56.123Z,29.53
2018-12-31T16:58:37.938Z,24.03
2018-12-31T17:01:46.645Z,31.20
2018-12-31T17:04:15.404Z,27.83
2018-12-31T17:07:28.169Z,28.00
2018-12-31T17:09:52.864Z,30.20
2018-12-31T17:12:21.668Z,29.63
2018-12-31T17:14:52.031Z,29.57
2018-12-31T17:17:24.360Z,33.17
2018-12-31T17:19:53.385Z,30.83
2018-12-31T17:22:21.887Z,30.30
2018-12-31T17:24:58.936Z,33.03
2018-12-31T17:27:25.128Z,34.00
2018-12-31T17:30:40.054Z,33.33
2018-12-31T17:33:10.197Z,34.37
2018-12-31T17:36:21.037Z,33.83
2018-12-31T17:38:49.567Z,31.20
2018-12-31T17:44:34.865Z,32.40
2018-12-31T17:47:36.652Z,37.43
2018-12-31T17:50:09.062Z,35.67
2018-12-31T17:53:06.350Z,35.10
2018-12-31T17:55:37.918Z,35.23
2018-12-31T17:58:42.315Z,35.80
2018-12-31T18:01:10.910Z,37.80
2018-12-31T18:04:16.803Z,40.53
2018-12-31T18:06:47.652Z,38.60
2018-12-31T18:09:40.211Z,35.63
2018-12-31T18:12:08.844Z,39.50
2018-12-31T18:15:17.008Z,32.50
2018-12-31T18:17:46.621Z,31.13
2018-12-31T18:20:48.007Z,34.30
2018-12-31T18:23:16.488Z,32.70
2018-12-31T18:26:17.218Z,37.23
2018-12-31T18:28:45.417Z,29.20
2018-12-31T18:31:41.029Z,26.63
2018-12-31T18:34:09.600Z,26.87
2018-12-31T18:37:11.211Z,33.53
2018-12-31T18:39:40.829Z,32.57
2018-12-31T18:42:40.027Z,31.50
2018-12-31T18:45:10.767Z,29.87
2018-12-31T18:50:52.785Z,39.43
2018-12-31T18:53:57.093Z,41.50
2018-12-31T18:56:29.783Z,37.20
2018-12-31T18:59:00.091Z,41.37
2018-12-31T19:01:28.592Z,35.63
2018-12-31T19:03:57.668Z,32.60
2018-12-31T19:07:03.001Z,36.07
2018-12-31T19:09:34.282Z,36.07
2018-12-31T19:12:29.102Z,36.33
2018-12-31T19:15:09.705Z,35.13
2018-12-31T19:18:18.375Z,37.57
2018-12-31T19:20:44.224Z,38.60
2018-12-31T19:26:26.658Z,59.17
2018-12-31T19:29:31.799Z,48.50
2018-12-31T19:32:04.766Z,33.33
2018-12-31T19:34:36.263Z,36.83
2018-12-31T19:37:06.380Z,29.30
2018-12-31T19:39:34.849Z,27.33
2018-12-31T19:42:24.231Z,28.67
2018-12-31T19:44:55.731Z,27.30
2018-12-31T19:48:06.094Z,43.10
2018-12-31T19:50:36.977Z,40.13
2018-12-31T19:53:31.798Z,40.10
2018-12-31T19:56:00.539Z,42.93
2018-12-31T19:59:02.172Z,39.50
2018-12-31T20:01:35.624Z,36.90
2018-12-31T20:04:04.468Z,36.07
2018-12-31T20:06:34.086Z,39.93
2018-12-31T20:09:08.429Z,44.63
2018-12-31T20:12:19.174Z,38.53
2018-12-31T20:14:49.215Z,37.63
2018-12-31T20:17:50.853Z,41.80
2018-12-31T20:20:20.047Z,39.63
2018-12-31T20:23:38.676Z,37.70
2018-12-31T20:26:10.860Z,31.83
2018-12-31T20:29:13.315Z,35.77
2018-12-31T20:31:41.816Z,31.33
2018-12-31T20:37:26.539Z,30.40
2018-12-31T20:40:20.093Z,35.13
2018-12-31T20:42:50.690Z,33.67
2018-12-31T20:45:53.044Z,35.77
2018-12-31T20:48:21.550Z,30.30
2018-12-31T20:51:32.035Z,29.97
2018-12-31T20:54:02.679Z,32.60
2018-12-31T20:57:13.396Z,30.43
2018-12-31T20:59:44.333Z,43.10
2018-12-31T21:03:04.297Z,40.17
2018-12-31T21:05:33.476Z,45.77
2018-12-31T21:08:39.227Z,284.53
2018-12-31T21:11:10.760Z,57.70
2018-12-31T21:16:42.836Z,46.60
2018-12-31T21:19:47.521Z,38.60
2018-12-31T21:22:16.631Z,32.20
2018-12-31T21:28:00.324Z,33.40
2018-12-31T21:31:01.810Z,33.53
2018-12-31T21:33:31.379Z,32.60
2018-12-31T21:36:44.599Z,32.37
2018-12-31T21:39:13.300Z,26.97
2018-12-31T21:42:24.605Z,29.20
2018-12-31T21:44:53.385Z,24.10
2018-12-31T21:48:10.564Z,30.27
2018-12-31T21:50:39.278Z,30.50
2018-12-31T21:53:32.499Z,32.23
2018-12-31T21:56:01.239Z,32.23
2018-12-31T21:59:02.932Z,26.20
2018-12-31T22:01:32.827Z,25.23
2018-12-31T22:04:02.520Z,27.57
2018-12-31T22:06:31.153Z,28.13
2018-12-31T22:09:07.178Z,31.53
2018-12-31T22:12:18.009Z,30.70
2018-12-31T22:14:48.002Z,35.17
2018-12-31T22:20:37.831Z,31.87
2018-12-31T22:23:44.456Z,26.97
2018-12-31T22:26:13.632Z,27.77
2018-12-31T22:29:33.362Z,30.03
2018-12-31T22:32:04.684Z,130.03
2018-12-31T22:35:06.207Z,39.33
2018-12-31T22:37:34.791Z,34.17
2018-12-31T22:40:50.131Z,29.03
2018-12-31T22:43:18.746Z,27.00
2018-12-31T22:45:53.873Z,32.80
2018-12-31T22:48:36.251Z,31.40
2018-12-31T22:51:29.842Z,29.37
2018-12-31T22:54:00.014Z,131.90
2018-12-31T22:57:06.888Z,38.33
2018-12-31T22:59:36.029Z,34.27
2018-12-31T23:02:46.952Z,32.90
2018-12-31T23:05:15.507Z,30.90
2018-12-31T23:08:11.494Z,89.73
2018-12-31T23:10:41.387Z,253.10
2018-12-31T23:16:29.360Z,134.77
2018-12-31T23:19:41.832Z,213.83
2018-12-31T23:22:15.933Z,282.87
2018-12-31T23:25:29.397Z,451.67
2018-12-31T23:27:58.904Z,145.10
2018-12-31T23:30:58.524Z,99.53
2018-12-31T23:33:27.200Z,90.60
2018-12-31T23:36:27.917Z,98.43
2018-12-31T23:39:05.225Z,90.70
2018-12-31T23:42:02.784Z,205.23
2018-12-31T23:44:31.388Z,172.63
2018-12-31T23:53:48.007Z,180.63
2018-12-31T23:56:16.815Z,164.73
2018-12-31T23:58:45.654Z,173.73
